sensor_id;sensor_type;location;lat;lon;timestamp;pressure;altitude;pressure_sealevel;temperature;humidity
27144;BME280;14672;50.250;8.312;2023-02-28T00:00:49;99902.84;;;5.53;49.85
27144;BME280;14672;50.250;8.312;2023-02-28T00:03:15;99900.84;;;5.54;50.06
27144;BME280;14672;50.250;8.312;2023-02-28T00:05:41;99902.47;;;5.58;49.92
27144;BME280;14672;50.250;8.312;2023-02-28T00:08:08;99897.63;;;5.55;50.42
27144;BME280;14672;50.250;8.312;2023-02-28T00:10:34;99899.25;;;5.49;50.50
27144;BME280;14672;50.250;8.312;2023-02-28T00:13:05;99897.22;;;5.46;50.85
27144;BME280;14672;50.250;8.312;2023-02-28T00:15:32;99904.06;;;5.49;50.58
27144;BME280;14672;50.250;8.312;2023-02-28T00:17:58;99898.00;;;5.43;50.60
27144;BME280;14672;50.250;8.312;2023-02-28T00:20:24;99902.03;;;5.39;50.95
27144;BME280;14672;50.250;8.312;2023-02-28T00:22:52;99903.25;;;5.45;50.58
27144;BME280;14672;50.250;8.312;2023-02-28T00:25:23;99894.00;;;5.55;50.30
27144;BME280;14672;50.250;8.312;2023-02-28T00:27:49;99900.03;;;5.46;50.21
27144;BME280;14672;50.250;8.312;2023-02-28T00:30:19;99891.16;;;5.37;50.31
27144;BME280;14672;50.250;8.312;2023-02-28T00:32:45;99896.38;;;5.28;50.47
27144;BME280;14672;50.250;8.312;2023-02-28T00:35:12;99893.19;;;5.33;50.77
27144;BME280;14672;50.250;8.312;2023-02-28T00:37:38;99902.00;;;5.32;50.81
27144;BME280;14672;50.250;8.312;2023-02-28T00:40:05;99904.00;;;5.24;50.74
27144;BME280;14672;50.250;8.312;2023-02-28T00:42:35;99905.59;;;5.21;50.85
27144;BME280;14672;50.250;8.312;2023-02-28T00:45:03;99903.19;;;5.13;51.55
27144;BME280;14672;50.250;8.312;2023-02-28T00:47:31;99900.75;;;5.22;50.97
27144;BME280;14672;50.250;8.312;2023-02-28T00:49:57;99898.34;;;5.17;50.99
27144;BME280;14672;50.250;8.312;2023-02-28T00:52:23;99899.13;;;5.10;51.09
27144;BME280;14672;50.250;8.312;2023-02-28T00:54:48;99895.09;;;5.08;51.44
27144;BME280;14672;50.250;8.312;2023-02-28T00:57:14;99896.72;;;5.09;51.44
27144;BME280;14672;50.250;8.312;2023-02-28T00:59:40;99895.91;;;5.12;51.43
27144;BME280;14672;50.250;8.312;2023-02-28T01:02:06;99902.31;;;5.02;51.75
27144;BME280;14672;50.250;8.312;2023-02-28T01:04:32;99895.09;;;5.08;51.69
27144;BME280;14672;50.250;8.312;2023-02-28T01:06:58;99898.72;;;5.01;52.05
27144;BME280;14672;50.250;8.312;2023-02-28T01:09:24;99901.94;;;5.10;51.70
27144;BME280;14672;50.250;8.312;2023-02-28T01:11:49;99903.97;;;5.13;51.61
27144;BME280;14672;50.250;8.312;2023-02-28T01:14:17;99898.72;;;5.12;51.60
27144;BME280;14672;50.250;8.312;2023-02-28T01:16:43;99893.91;;;5.09;51.75
27144;BME280;14672;50.250;8.312;2023-02-28T01:19:10;99894.69;;;5.06;52.20
27144;BME280;14672;50.250;8.312;2023-02-28T01:21:36;99893.47;;;5.00;52.08
27144;BME280;14672;50.250;8.312;2023-02-28T01:24:03;99894.28;;;5.00;52.28
27144;BME280;14672;50.250;8.312;2023-02-28T01:26:31;99901.09;;;4.96;52.33
27144;BME280;14672;50.250;8.312;2023-02-28T01:28:57;99900.66;;;4.94;52.28
27144;BME280;14672;50.250;8.312;2023-02-28T01:31:23;99893.44;;;4.93;51.97
27144;BME280;14672;50.250;8.312;2023-02-28T01:33:49;99893.81;;;4.88;52.35
27144;BME280;14672;50.250;8.312;2023-02-28T01:36:22;99898.13;;;4.67;52.45
27144;BME280;14672;50.250;8.312;2023-02-28T01:38:49;99899.78;;;4.76;52.15
27144;BME280;14672;50.250;8.312;2023-02-28T01:41:25;99891.34;;;4.76;52.65
27144;BME280;14672;50.250;8.312;2023-02-28T01:44:00;99894.59;;;4.78;52.43
27144;BME280;14672;50.250;8.312;2023-02-28T01:46:30;99887.31;;;4.69;52.52
27144;BME280;14672;50.250;8.312;2023-02-28T01:51:48;99900.56;;;4.65;52.61
27144;BME280;14672;50.250;8.312;2023-02-28T01:54:27;99888.88;;;4.63;52.73
27144;BME280;14672;50.250;8.312;2023-02-28T01:57:05;99885.66;;;4.61;52.62
27144;BME280;14672;50.250;8.312;2023-02-28T01:59:42;99884.41;;;4.55;52.56
27144;BME280;14672;50.250;8.312;2023-02-28T02:02:13;99885.59;;;4.54;52.45
27144;BME280;14672;50.250;8.312;2023-02-28T02:04:56;99885.22;;;4.59;52.41
27144;BME280;14672;50.250;8.312;2023-02-28T02:07:25;99881.94;;;4.47;52.55
27144;BME280;14672;50.250;8.312;2023-02-28T02:19:14;99877.47;;;4.42;52.64
27144;BME280;14672;50.250;8.312;2023-02-28T02:25:07;99874.63;;;4.35;52.37
27144;BME280;14672;50.250;8.312;2023-02-28T02:36:47;99859.34;;;4.29;52.76
27144;BME280;14672;50.250;8.312;2023-02-28T02:39:56;99867.38;;;4.31;52.71
27144;BME280;14672;50.250;8.312;2023-02-28T02:42:46;99870.16;;;4.23;52.91
27144;BME280;14672;50.250;8.312;2023-02-28T02:47:54;99863.69;;;4.19;52.81
27144;BME280;14672;50.250;8.312;2023-02-28T02:50:33;99866.09;;;4.17;52.76
27144;BME280;14672;50.250;8.312;2023-02-28T02:53:03;99874.06;;;4.08;53.51
27144;BME280;14672;50.250;8.312;2023-02-28T02:55:36;99873.69;;;4.10;52.72
27144;BME280;14672;50.250;8.312;2023-02-28T02:58:14;99872.47;;;4.11;52.88
27144;BME280;14672;50.250;8.312;2023-02-28T03:00:51;99874.03;;;4.05;53.00
27144;BME280;14672;50.250;8.312;2023-02-28T03:03:19;99877.66;;;4.05;52.57
27144;BME280;14672;50.250;8.312;2023-02-28T03:05:59;99871.94;;;3.95;52.98
27144;BME280;14672;50.250;8.312;2023-02-28T03:08:27;99868.81;;;4.07;52.82
27144;BME280;14672;50.250;8.312;2023-02-28T03:10:59;99879.56;;;3.94;53.04
27144;BME280;14672;50.250;8.312;2023-02-28T03:26:06;99873.47;;;3.82;53.18
27144;BME280;14672;50.250;8.312;2023-02-28T03:28:27;99873.47;;;3.82;52.98
27144;BME280;14672;50.250;8.312;2023-02-28T03:31:35;99878.16;;;3.70;53.61
27144;BME280;14672;50.250;8.312;2023-02-28T03:34:12;99867.41;;;3.79;53.41
27144;BME280;14672;50.250;8.312;2023-02-28T03:36:47;99867.81;;;3.78;53.37
27144;BME280;14672;50.250;8.312;2023-02-28T03:39:22;99872.91;;;3.62;53.52
27144;BME280;14672;50.250;8.312;2023-02-28T03:42:05;99871.78;;;3.70;53.27
27144;BME280;14672;50.250;8.312;2023-02-28T03:44:42;99875.75;;;3.69;53.07
27144;BME280;14672;50.250;8.312;2023-02-28T03:47:24;99879.38;;;3.69;53.08
27144;BME280;14672;50.250;8.312;2023-02-28T03:50:29;99878.94;;;3.67;53.31
27144;BME280;14672;50.250;8.312;2023-02-28T03:53:10;99883.72;;;3.63;53.34
27144;BME280;14672;50.250;8.312;2023-02-28T03:55:54;99888.94;;;3.61;53.18
27144;BME280;14672;50.250;8.312;2023-02-28T04:01:35;99897.34;;;3.58;53.42
27144;BME280;14672;50.250;8.312;2023-02-28T04:04:03;99887.66;;;3.55;53.27
27144;BME280;14672;50.250;8.312;2023-02-28T04:06:32;99886.88;;;3.58;53.38
27144;BME280;14672;50.250;8.312;2023-02-28T04:08:58;99891.69;;;3.54;53.12
27144;BME280;14672;50.250;8.312;2023-02-28T04:13:56;99888.03;;;3.50;53.13
27144;BME280;14672;50.250;8.312;2023-02-28T04:16:22;99886.88;;;3.58;53.13
27144;BME280;14672;50.250;8.312;2023-02-28T04:18:48;99889.25;;;3.53;52.87
27144;BME280;14672;50.250;8.312;2023-02-28T04:21:14;99892.03;;;3.49;53.27
27144;BME280;14672;50.250;8.312;2023-02-28T04:23:40;99889.25;;;3.53;53.06
27144;BME280;14672;50.250;8.312;2023-02-28T04:26:06;99884.47;;;3.53;53.24
27144;BME280;14672;50.250;8.312;2023-02-28T04:28:33;99895.19;;;3.44;52.93
27144;BME280;14672;50.250;8.312;2023-02-28T04:31:04;99890.41;;;3.48;53.14
27144;BME280;14672;50.250;8.312;2023-02-28T04:33:31;99892.84;;;3.50;53.00
27144;BME280;14672;50.250;8.312;2023-02-28T04:36:05;99891.63;;;3.51;53.06
27144;BME280;14672;50.250;8.312;2023-02-28T04:38:40;99884.41;;;3.46;52.96
27144;BME280;14672;50.250;8.312;2023-02-28T04:41:06;99886.41;;;3.49;53.00
27144;BME280;14672;50.250;8.312;2023-02-28T04:43:32;99887.19;;;3.46;52.73
27144;BME280;14672;50.250;8.312;2023-02-28T04:46:02;99882.00;;;3.48;52.98
27144;BME280;14672;50.250;8.312;2023-02-28T04:48:31;99894.78;;;3.42;53.33
27144;BME280;14672;50.250;8.312;2023-02-28T04:51:09;99887.91;;;3.40;53.34
27144;BME280;14672;50.250;8.312;2023-02-28T04:53:37;99890.22;;;3.30;52.86
27144;BME280;14672;50.250;8.312;2023-02-28T04:56:04;99886.19;;;3.28;53.47
27144;BME280;14672;50.250;8.312;2023-02-28T04:58:30;99890.16;;;3.23;53.06
27144;BME280;14672;50.250;8.312;2023-02-28T05:01:27;99895.78;;;3.23;53.34
27144;BME280;14672;50.250;8.312;2023-02-28T05:03:54;99887.31;;;3.20;53.57
27144;BME280;14672;50.250;8.312;2023-02-28T05:06:26;99890.56;;;3.22;53.41
27144;BME280;14672;50.250;8.312;2023-02-28T05:08:52;99886.63;;;3.30;53.31
27144;BME280;14672;50.250;8.312;2023-02-28T05:11:31;99895.53;;;3.39;53.56
27144;BME280;14672;50.250;8.312;2023-02-28T05:14:11;99904.34;;;3.34;53.37
27144;BME280;14672;50.250;8.312;2023-02-28T05:16:38;99897.41;;;3.24;53.01
27144;BME280;14672;50.250;8.312;2023-02-28T05:19:03;99904.88;;;3.10;53.90
27144;BME280;14672;50.250;8.312;2023-02-28T05:24:06;99905.72;;;3.14;53.86
27144;BME280;14672;50.250;8.312;2023-02-28T05:26:39;99908.56;;;3.17;53.67
27144;BME280;14672;50.250;8.312;2023-02-28T05:29:06;99908.16;;;3.19;53.61
27144;BME280;14672;50.250;8.312;2023-02-28T05:31:32;99903.88;;;3.32;53.83
27144;BME280;14672;50.250;8.312;2023-02-28T05:33:58;99904.34;;;3.34;53.48
27144;BME280;14672;50.250;8.312;2023-02-28T05:36:24;99909.56;;;3.39;53.79
27144;BME280;14672;50.250;8.312;2023-02-28T05:38:51;99911.97;;;3.37;53.70
27144;BME280;14672;50.250;8.312;2023-02-28T05:41:19;99903.47;;;3.30;53.94
27144;BME280;14672;50.250;8.312;2023-02-28T05:43:46;99907.13;;;3.34;53.84
27144;BME280;14672;50.250;8.312;2023-02-28T05:46:13;99908.31;;;3.33;54.07
27144;BME280;14672;50.250;8.312;2023-02-28T05:48:40;99913.53;;;3.35;53.98
27144;BME280;14672;50.250;8.312;2023-02-28T05:51:07;99916.44;;;3.42;53.85
27144;BME280;14672;50.250;8.312;2023-02-28T05:53:34;99908.41;;;3.40;54.26
27144;BME280;14672;50.250;8.312;2023-02-28T05:56:00;99912.75;;;3.34;53.82
27144;BME280;14672;50.250;8.312;2023-02-28T05:58:26;99914.50;;;3.49;53.50
27144;BME280;14672;50.250;8.312;2023-02-28T06:00:57;99916.44;;;3.42;53.86
27144;BME280;14672;50.250;8.312;2023-02-28T06:03:24;99910.09;;;3.48;53.67
27144;BME280;14672;50.250;8.312;2023-02-28T06:05:49;99921.31;;;3.48;53.95
27144;BME280;14672;50.250;8.312;2023-02-28T06:08:16;99914.94;;;3.55;53.64
27144;BME280;14672;50.250;8.312;2023-02-28T06:10:42;99922.94;;;3.49;53.51
27144;BME280;14672;50.250;8.312;2023-02-28T06:13:08;99932.22;;;3.53;53.47
27144;BME280;14672;50.250;8.312;2023-02-28T06:15:33;99926.31;;;3.65;53.31
27144;BME280;14672;50.250;8.312;2023-02-28T06:17:59;99928.66;;;3.60;53.50
27144;BME280;14672;50.250;8.312;2023-02-28T06:20:27;99935.03;;;3.53;53.36
27144;BME280;14672;50.250;8.312;2023-02-28T06:22:57;99929.13;;;3.65;52.80
27144;BME280;14672;50.250;8.312;2023-02-28T06:25:27;99932.34;;;3.67;53.10
27144;BME280;14672;50.250;8.312;2023-02-28T06:27:54;99937.59;;;3.69;53.04
27144;BME280;14672;50.250;8.312;2023-02-28T06:30:20;99939.53;;;3.61;52.91
27144;BME280;14672;50.250;8.312;2023-02-28T06:32:52;99935.50;;;3.62;52.98
27144;BME280;14672;50.250;8.312;2023-02-28T06:35:18;99940.81;;;3.71;52.93
27144;BME280;14672;50.250;8.312;2023-02-28T06:37:44;99942.38;;;3.65;52.70
27144;BME280;14672;50.250;8.312;2023-02-28T06:40:11;99940.78;;;3.67;52.70
27144;BME280;14672;50.250;8.312;2023-02-28T06:42:38;99938.72;;;3.61;52.70
27144;BME280;14672;50.250;8.312;2023-02-28T06:45:04;99938.75;;;3.64;52.63
27144;BME280;14672;50.250;8.312;2023-02-28T06:47:36;99935.94;;;3.64;52.51
27144;BME280;14672;50.250;8.312;2023-02-28T06:50:03;99936.34;;;3.66;52.35
27144;BME280;14672;50.250;8.312;2023-02-28T06:52:29;99942.06;;;3.73;52.49
27144;BME280;14672;50.250;8.312;2023-02-28T06:54:54;99940.41;;;3.69;52.25
27144;BME280;14672;50.250;8.312;2023-02-28T06:57:29;99946.84;;;3.69;52.76
27144;BME280;14672;50.250;8.312;2023-02-28T06:59:59;99949.22;;;3.71;52.44
27144;BME280;14672;50.250;8.312;2023-02-28T07:02:25;99940.84;;;3.74;52.04
27144;BME280;14672;50.250;8.312;2023-02-28T07:04:51;99946.88;;;3.76;51.85
27144;BME280;14672;50.250;8.312;2023-02-28T07:07:17;99947.22;;;3.71;51.83
27144;BME280;14672;50.250;8.312;2023-02-28T07:09:43;99947.69;;;3.77;51.66
27144;BME280;14672;50.250;8.312;2023-02-28T07:12:08;99954.53;;;3.79;51.46
27144;BME280;14672;50.250;8.312;2023-02-28T07:14:36;99956.94;;;3.77;51.74
27144;BME280;14672;50.250;8.312;2023-02-28T07:17:03;99950.91;;;3.79;51.38
27144;BME280;14672;50.250;8.312;2023-02-28T07:19:29;99950.91;;;3.79;51.26
27144;BME280;14672;50.250;8.312;2023-02-28T07:21:55;99956.50;;;3.75;51.35
27144;BME280;14672;50.250;8.312;2023-02-28T07:24:20;99962.25;;;3.86;51.32
27144;BME280;14672;50.250;8.312;2023-02-28T07:26:49;99953.38;;;3.84;51.24
27144;BME280;14672;50.250;8.312;2023-02-28T07:29:14;99954.31;;;3.99;50.76
27144;BME280;14672;50.250;8.312;2023-02-28T07:31:40;99960.63;;;3.85;51.07
27144;BME280;14672;50.250;8.312;2023-02-28T07:34:06;99956.22;;;3.88;51.23
27144;BME280;14672;50.250;8.312;2023-02-28T07:36:32;99959.03;;;3.88;51.12
27144;BME280;14672;50.250;8.312;2023-02-28T07:38:58;99949.81;;;3.91;51.41
27144;BME280;14672;50.250;8.312;2023-02-28T07:41:24;99954.78;;;4.04;51.01
27144;BME280;14672;50.250;8.312;2023-02-28T07:43:54;99954.75;;;4.01;51.02
27144;BME280;14672;50.250;8.312;2023-02-28T07:46:21;99953.97;;;4.04;51.23
27144;BME280;14672;50.250;8.312;2023-02-28T07:48:46;99946.84;;;4.17;51.10
27144;BME280;14672;50.250;8.312;2023-02-28T07:51:12;99945.19;;;4.12;50.65
27144;BME280;14672;50.250;8.312;2023-02-28T07:53:38;99950.00;;;4.08;51.40
27144;BME280;14672;50.250;8.312;2023-02-28T07:56:05;99961.75;;;4.21;50.97
27144;BME280;14672;50.250;8.312;2023-02-28T07:58:31;99954.88;;;4.18;50.95
27144;BME280;14672;50.250;8.312;2023-02-28T08:00:57;99956.53;;;4.23;50.84
27144;BME280;14672;50.250;8.312;2023-02-28T08:03:29;99954.19;;;4.32;50.77
27144;BME280;14672;50.250;8.312;2023-02-28T08:05:55;99958.63;;;4.33;50.79
27144;BME280;14672;50.250;8.312;2023-02-28T08:08:21;99959.91;;;4.46;50.43
27144;BME280;14672;50.250;8.312;2023-02-28T08:10:47;99955.13;;;4.50;49.87
27144;BME280;14672;50.250;8.312;2023-02-28T08:13:15;99950.25;;;4.44;50.00
27144;BME280;14672;50.250;8.312;2023-02-28T08:15:42;99952.72;;;4.52;50.20
27144;BME280;14672;50.250;8.312;2023-02-28T08:18:08;99957.56;;;4.55;49.93
27144;BME280;14672;50.250;8.312;2023-02-28T08:20:34;99954.34;;;4.53;49.73
27144;BME280;14672;50.250;8.312;2023-02-28T08:23:00;99955.19;;;4.57;49.07
27144;BME280;14672;50.250;8.312;2023-02-28T08:25:25;99948.78;;;4.67;49.19
27144;BME280;14672;50.250;8.312;2023-02-28T08:27:52;99939.13;;;4.61;49.26
27144;BME280;14672;50.250;8.312;2023-02-28T08:30:18;99950.38;;;4.61;49.16
27144;BME280;14672;50.250;8.312;2023-02-28T08:32:44;99941.16;;;4.68;48.98
27144;BME280;14672;50.250;8.312;2023-02-28T08:35:10;99949.25;;;4.77;48.92
27144;BME280;14672;50.250;8.312;2023-02-28T08:37:36;99949.56;;;4.57;48.29
27144;BME280;14672;50.250;8.312;2023-02-28T08:40:03;99946.88;;;4.82;48.14
27144;BME280;14672;50.250;8.312;2023-02-28T08:42:29;99949.28;;;4.84;48.14
27144;BME280;14672;50.250;8.312;2023-02-28T08:44:55;99950.13;;;4.91;48.25
27144;BME280;14672;50.250;8.312;2023-02-28T08:47:21;99947.75;;;4.97;47.73
27144;BME280;14672;50.250;8.312;2023-02-28T08:49:47;99944.88;;;4.90;46.87
27144;BME280;14672;50.250;8.312;2023-02-28T08:52:13;99944.19;;;5.10;46.53
27144;BME280;14672;50.250;8.312;2023-02-28T08:54:39;99949.81;;;5.10;46.55
27144;BME280;14672;50.250;8.312;2023-02-28T08:57:05;99947.41;;;5.09;46.09
27144;BME280;14672;50.250;8.312;2023-02-28T08:59:31;99944.25;;;5.17;45.49
27144;BME280;14672;50.250;8.312;2023-02-28T09:01:57;99943.44;;;5.24;45.60
27144;BME280;14672;50.250;8.312;2023-02-28T09:04:23;99953.53;;;5.29;45.50
27144;BME280;14672;50.250;8.312;2023-02-28T09:06:49;99942.19;;;5.18;45.63
27144;BME280;14672;50.250;8.312;2023-02-28T09:09:15;99943.47;;;5.38;45.46
27144;BME280;14672;50.250;8.312;2023-02-28T09:11:41;99958.38;;;5.42;45.07
27144;BME280;14672;50.250;8.312;2023-02-28T09:14:08;99943.09;;;5.43;44.72
27144;BME280;14672;50.250;8.312;2023-02-28T09:16:34;99939.50;;;5.53;44.70
27144;BME280;14672;50.250;8.312;2023-02-28T09:19:00;99942.72;;;5.55;44.07
27144;BME280;14672;50.250;8.312;2023-02-28T09:21:27;99958.03;;;6.89;42.35
27144;BME280;14672;50.250;8.312;2023-02-28T09:23:53;99927.38;;;9.68;36.97
27144;BME280;14672;50.250;8.312;2023-02-28T09:26:24;99928.72;;;10.83;34.91
27144;BME280;14672;50.250;8.312;2023-02-28T09:28:51;99911.06;;;12.23;32.94
27144;BME280;14672;50.250;8.312;2023-02-28T09:31:24;99924.41;;;10.75;34.12
27144;BME280;14672;50.250;8.312;2023-02-28T09:33:53;99919.66;;;11.31;33.11
27144;BME280;14672;50.250;8.312;2023-02-28T09:36:20;99925.88;;;11.26;32.54
27144;BME280;14672;50.250;8.312;2023-02-28T09:38:46;99922.38;;;10.06;34.59
27144;BME280;14672;50.250;8.312;2023-02-28T09:41:19;99935.16;;;11.86;33.04
27144;BME280;14672;50.250;8.312;2023-02-28T09:43:50;99918.41;;;11.88;31.88
27144;BME280;14672;50.250;8.312;2023-02-28T09:46:39;99926.66;;;10.64;33.52
27144;BME280;14672;50.250;8.312;2023-02-28T09:49:20;99921.97;;;10.04;34.08
27144;BME280;14672;50.250;8.312;2023-02-28T09:51:55;99919.66;;;11.87;31.75
27144;BME280;14672;50.250;8.312;2023-02-28T09:54:28;99915.25;;;11.07;32.85
27144;BME280;14672;50.250;8.312;2023-02-28T10:05:19;99929.44;;;8.70;34.98
27144;BME280;14672;50.250;8.312;2023-02-28T10:08:18;99920.59;;;8.61;34.78
27144;BME280;14672;50.250;8.312;2023-02-28T10:10:48;99921.66;;;8.40;35.22
27144;BME280;14672;50.250;8.312;2023-02-28T10:20:02;99921.25;;;8.79;35.49
27144;BME280;14672;50.250;8.312;2023-02-28T10:22:15;99925.13;;;8.95;35.08
27144;BME280;14672;50.250;8.312;2023-02-28T10:24:50;99921.25;;;9.13;34.96
27144;BME280;14672;50.250;8.312;2023-02-28T10:27:30;99920.47;;;8.75;34.89
27144;BME280;14672;50.250;8.312;2023-02-28T10:29:59;99920.22;;;8.96;34.73
27144;BME280;14672;50.250;8.312;2023-02-28T10:32:30;99927.16;;;9.25;34.85
27144;BME280;14672;50.250;8.312;2023-02-28T10:37:37;99919.84;;;8.94;34.81
27144;BME280;14672;50.250;8.312;2023-02-28T10:40:06;99924.78;;;9.20;34.72
27144;BME280;14672;50.250;8.312;2023-02-28T10:43:20;99923.91;;;9.27;34.52
27144;BME280;14672;50.250;8.312;2023-02-28T10:49:00;99915.34;;;9.61;34.24
27144;BME280;14672;50.250;8.312;2023-02-28T10:51:36;99917.34;;;9.90;33.92
27144;BME280;14672;50.250;8.312;2023-02-28T10:54:03;99918.69;;;9.82;33.94
27144;BME280;14672;50.250;8.312;2023-02-28T10:56:29;99913.03;;;9.52;33.99
27144;BME280;14672;50.250;8.312;2023-02-28T10:58:59;99917.22;;;9.98;33.84
27144;BME280;14672;50.250;8.312;2023-02-28T11:01:43;99921.41;;;10.40;33.36
27144;BME280;14672;50.250;8.312;2023-02-28T11:09:39;99912.72;;;10.27;32.75
27144;BME280;14672;50.250;8.312;2023-02-28T11:12:21;99912.16;;;10.59;32.98
27144;BME280;14672;50.250;8.312;2023-02-28T11:15:00;99911.50;;;10.94;32.50
27144;BME280;14672;50.250;8.312;2023-02-28T11:17:30;99903.06;;;10.87;31.94
27144;BME280;14672;50.250;8.312;2023-02-28T11:20:18;99900.13;;;10.94;32.19
27144;BME280;14672;50.250;8.312;2023-02-28T11:22:46;99907.63;;;11.04;32.08
27144;BME280;14672;50.250;8.312;2023-02-28T11:25:23;99901.84;;;11.08;32.17
27144;BME280;14672;50.250;8.312;2023-02-28T11:27:59;99901.44;;;11.09;31.88
27144;BME280;14672;50.250;8.312;2023-02-28T11:30:39;99902.72;;;11.24;31.74
27144;BME280;14672;50.250;8.312;2023-02-28T11:33:40;99902.72;;;10.85;31.51
27144;BME280;14672;50.250;8.312;2023-02-28T11:36:15;99896.22;;;10.84;32.03
27144;BME280;14672;50.250;8.312;2023-02-28T11:38:42;99894.69;;;11.00;31.52
27144;BME280;14672;50.250;8.312;2023-02-28T11:47:45;99894.19;;;11.44;31.12
27144;BME280;14672;50.250;8.312;2023-02-28T11:53:55;99884.28;;;11.68;31.53
27144;BME280;14672;50.250;8.312;2023-02-28T11:56:40;99878.56;;;12.20;31.29
27144;BME280;14672;50.250;8.312;2023-02-28T11:59:48;99878.31;;;12.76;30.92
27144;BME280;14672;50.250;8.312;2023-02-28T12:02:34;99871.09;;;12.71;30.84
27144;BME280;14672;50.250;8.312;2023-02-28T12:05:21;99872.94;;;13.07;30.11
27144;BME280;14672;50.250;8.312;2023-02-28T12:11:07;99875.03;;;13.86;29.30
27144;BME280;14672;50.250;8.312;2023-02-28T12:16:52;99864.41;;;14.24;28.55
27144;BME280;14672;50.250;8.312;2023-02-28T12:20:17;99858.31;;;14.22;28.75
27144;BME280;14672;50.250;8.312;2023-02-28T12:28:15;99846.16;;;14.56;27.78
27144;BME280;14672;50.250;8.312;2023-02-28T12:31:01;99860.84;;;14.80;27.75
27144;BME280;14672;50.250;8.312;2023-02-28T12:33:36;99849.25;;;14.83;27.41
27144;BME280;14672;50.250;8.312;2023-02-28T12:36:14;99857.94;;;14.92;27.14
27144;BME280;14672;50.250;8.312;2023-02-28T12:41:43;99853.66;;;15.19;26.85
27144;BME280;14672;50.250;8.312;2023-02-28T12:44:52;99853.44;;;15.35;26.77
27144;BME280;14672;50.250;8.312;2023-02-28T12:47:20;99844.16;;;15.74;26.44
27144;BME280;14672;50.250;8.312;2023-02-28T12:50:09;99842.38;;;15.68;26.50
27144;BME280;14672;50.250;8.312;2023-02-28T12:52:48;99856.09;;;15.29;27.19
27144;BME280;14672;50.250;8.312;2023-02-28T12:55:42;99863.13;;;15.28;26.70
27144;BME280;14672;50.250;8.312;2023-02-28T13:09:05;99839.88;;;15.79;26.15
27144;BME280;14672;50.250;8.312;2023-02-28T13:11:54;99838.63;;;15.89;26.20
27144;BME280;14672;50.250;8.312;2023-02-28T13:14:36;99832.81;;;16.11;26.46
27144;BME280;14672;50.250;8.312;2023-02-28T13:20:33;99839.16;;;16.06;26.85
27144;BME280;14672;50.250;8.312;2023-02-28T13:22:44;99832.63;;;16.05;26.29
27144;BME280;14672;50.250;8.312;2023-02-28T13:28:01;99829.50;;;16.21;25.68
27144;BME280;14672;50.250;8.312;2023-02-28T13:36:28;99822.53;;;16.31;25.67
27144;BME280;14672;50.250;8.312;2023-02-28T13:47:41;99812.66;;;16.41;25.64
27144;BME280;14672;50.250;8.312;2023-02-28T14:07:26;99818.22;;;16.45;26.46
27144;BME280;14672;50.250;8.312;2023-02-28T14:10:06;99817.28;;;16.39;26.85
27144;BME280;14672;50.250;8.312;2023-02-28T14:15:56;99818.06;;;16.49;26.60
27144;BME280;14672;50.250;8.312;2023-02-28T14:18:32;99810.06;;;16.16;26.60
27144;BME280;14672;50.250;8.312;2023-02-28T14:21:31;99819.50;;;16.35;26.77
27144;BME280;14672;50.250;8.312;2023-02-28T14:38:36;99802.00;;;15.84;26.80
27144;BME280;14672;50.250;8.312;2023-02-28T14:41:33;99797.47;;;15.65;27.20
27144;BME280;14672;50.250;8.312;2023-02-28T14:44:15;99800.47;;;15.61;27.36
27144;BME280;14672;50.250;8.312;2023-02-28T14:46:43;99800.03;;;15.41;27.71
27144;BME280;14672;50.250;8.312;2023-02-28T14:49:31;99793.16;;;15.60;27.60
27144;BME280;14672;50.250;8.312;2023-02-28T14:54:39;99805.09;;;15.37;27.77
27144;BME280;14672;50.250;8.312;2023-02-28T14:57:05;99798.25;;;15.34;27.99
27144;BME280;14672;50.250;8.312;2023-02-28T14:59:35;99793.47;;;15.31;27.94
27144;BME280;14672;50.250;8.312;2023-02-28T15:02:23;99803.34;;;15.09;27.95
27144;BME280;14672;50.250;8.312;2023-02-28T15:05:01;99794.84;;;14.96;28.41
27144;BME280;14672;50.250;8.312;2023-02-28T15:07:35;99805.94;;;14.72;28.57
27144;BME280;14672;50.250;8.312;2023-02-28T15:10:23;99804.22;;;14.75;28.50
27144;BME280;14672;50.250;8.312;2023-02-28T15:12:58;99799.63;;;14.77;28.35
27144;BME280;14672;50.250;8.312;2023-02-28T15:15:40;99791.66;;;14.72;28.82
27144;BME280;14672;50.250;8.312;2023-02-28T15:20:53;99791.50;;;14.54;28.57
27144;BME280;14672;50.250;8.312;2023-02-28T15:23:20;99792.69;;;14.66;28.70
27144;BME280;14672;50.250;8.312;2023-02-28T15:25:48;99796.25;;;14.35;28.77
27144;BME280;14672;50.250;8.312;2023-02-28T15:28:20;99793.91;;;14.55;28.79
27144;BME280;14672;50.250;8.312;2023-02-28T15:30:55;99795.69;;;14.62;28.95
27144;BME280;14672;50.250;8.312;2023-02-28T15:33:25;99789.16;;;14.62;28.73
27144;BME280;14672;50.250;8.312;2023-02-28T15:36:17;99790.94;;;14.34;29.04
27144;BME280;14672;50.250;8.312;2023-02-28T15:38:51;99791.44;;;14.32;28.90
27144;BME280;14672;50.250;8.312;2023-02-28T15:41:35;99790.88;;;14.25;28.98
27144;BME280;14672;50.250;8.312;2023-02-28T15:47:14;99806.16;;;13.71;29.39
27144;BME280;14672;50.250;8.312;2023-02-28T15:50:06;99793.47;;;13.47;29.57
27144;BME280;14672;50.250;8.312;2023-02-28T15:52:44;99797.38;;;12.99;29.98
27144;BME280;14672;50.250;8.312;2023-02-28T15:55:21;99808.88;;;12.83;30.25
27144;BME280;14672;50.250;8.312;2023-02-28T15:57:53;99802.94;;;12.77;30.44
27144;BME280;14672;50.250;8.312;2023-02-28T16:00:23;99805.94;;;12.57;30.50
27144;BME280;14672;50.250;8.312;2023-02-28T16:02:49;99810.53;;;12.22;31.09
27144;BME280;14672;50.250;8.312;2023-02-28T16:07:56;99810.56;;;11.74;31.72
27144;BME280;14672;50.250;8.312;2023-02-28T16:10:24;99810.44;;;11.61;32.10
27144;BME280;14672;50.250;8.312;2023-02-28T16:12:54;99816.31;;;11.54;32.25
27144;BME280;14672;50.250;8.312;2023-02-28T16:15:27;99822.69;;;11.42;32.13
27144;BME280;14672;50.250;8.312;2023-02-28T16:17:55;99818.50;;;11.30;32.49
27144;BME280;14672;50.250;8.312;2023-02-28T16:20:27;99825.22;;;11.20;32.44
27144;BME280;14672;50.250;8.312;2023-02-28T16:22:54;99815.44;;;11.21;32.70
27144;BME280;14672;50.250;8.312;2023-02-28T16:25:29;99825.47;;;10.90;32.86
27144;BME280;14672;50.250;8.312;2023-02-28T16:27:59;99824.13;;;10.75;33.42